Flugwetter

[source: ADDS]
METAR
LOWL 250450Z 25003KT CAVOK 20/14 Q1014 NOSIG =
TAF
TAF LOWL 250515Z 2506/2606 27004KT 9999 FEW080 SCT250 TX27/2511Z TN16/2603Z TEMPO 2511/2517 28015KT -SHRA FEW060TCU BKN080 PROB40 TEMPO 2512/2515 28015G27KT 5000 TSRA =